createdAt,value
2023-01-01T00:01:56.785Z,13.60
2023-01-01T00:04:24.712Z,13.60
2023-01-01T00:06:52.680Z,13.50
2023-01-01T00:09:39.599Z,13.50
2023-01-01T00:12:07.875Z,13.50
2023-01-01T00:14:35.791Z,13.50
2023-01-01T00:17:03.746Z,13.50
2023-01-01T00:19:31.691Z,13.40
2023-01-01T00:22:02.109Z,13.40
2023-01-01T00:24:39.262Z,13.40
2023-01-01T00:27:07.178Z,13.40
2023-01-01T00:29:35.107Z,13.40
2023-01-01T00:32:03.125Z,13.40
2023-01-01T00:34:31.213Z,13.30
2023-01-01T00:36:59.138Z,13.30
2023-01-01T00:39:27.114Z,13.30
2023-01-01T00:41:56.357Z,13.30
2023-01-01T00:44:24.313Z,13.30
2023-01-01T00:46:52.237Z,13.30
2023-01-01T00:49:21.569Z,13.30
2023-01-01T00:51:49.501Z,13.30
2023-01-01T00:54:17.443Z,13.30
2023-01-01T00:56:46.662Z,13.30
2023-01-01T00:59:15.960Z,13.20
2023-01-01T01:01:43.951Z,13.20
2023-01-01T01:04:12.461Z,13.30
2023-01-01T01:06:40.390Z,13.30
2023-01-01T01:09:08.441Z,13.30
2023-01-01T01:11:36.448Z,13.30
2023-01-01T01:14:04.377Z,13.30
2023-01-01T01:16:35.200Z,13.30
2023-01-01T01:19:05.805Z,13.30
2023-01-01T01:21:35.320Z,13.30
2023-01-01T01:24:04.643Z,13.30
2023-01-01T01:26:34.182Z,13.30
2023-01-01T01:29:02.558Z,13.30
2023-01-01T01:31:32.128Z,13.30
2023-01-01T01:34:01.556Z,13.40
2023-01-01T01:36:30.067Z,13.40
2023-01-01T01:38:58.094Z,13.30
2023-01-01T01:41:28.883Z,13.30
2023-01-01T01:44:00.481Z,13.30
2023-01-01T01:46:34.256Z,13.30
2023-01-01T01:49:06.161Z,13.30
2023-01-01T01:51:38.262Z,13.30
2023-01-01T01:54:12.046Z,13.30
2023-01-01T01:56:46.725Z,13.30
2023-01-01T01:59:15.939Z,13.30
2023-01-01T02:01:44.021Z,13.20
2023-01-01T02:04:13.708Z,13.20
2023-01-01T02:06:41.950Z,13.30
2023-01-01T02:09:10.716Z,13.30
2023-01-01T02:11:39.105Z,13.30
2023-01-01T02:14:07.499Z,13.30
2023-01-01T02:16:40.975Z,13.30
2023-01-01T02:19:19.602Z,13.40
2023-01-01T02:21:59.735Z,13.40
2023-01-01T02:24:44.541Z,13.40
2023-01-01T02:27:18.531Z,13.50
2023-01-01T02:29:52.296Z,13.60
2023-01-01T02:32:23.722Z,13.60
2023-01-01T02:34:55.952Z,13.60
2023-01-01T02:37:25.318Z,13.70
2023-01-01T02:39:56.613Z,13.70
2023-01-01T02:42:28.913Z,13.70
2023-01-01T02:45:00.288Z,13.80
2023-01-01T02:47:28.278Z,13.80
2023-01-01T02:50:00.527Z,13.80
2023-01-01T02:52:57.621Z,13.80
2023-01-01T02:55:33.483Z,13.90
2023-01-01T02:58:23.043Z,13.90
2023-01-01T03:00:56.725Z,13.90
2023-01-01T03:03:32.500Z,13.80
2023-01-01T03:06:24.899Z,13.90
2023-01-01T03:09:03.320Z,13.90
2023-01-01T03:11:37.935Z,13.90
2023-01-01T03:14:13.647Z,13.90
2023-01-01T03:16:48.590Z,14.00
2023-01-01T03:19:19.602Z,13.90
2023-01-01T03:21:54.953Z,13.90
2023-01-01T03:24:27.299Z,13.90
2023-01-01T03:26:58.635Z,13.90
2023-01-01T03:29:31.203Z,13.90
2023-01-01T03:32:03.300Z,13.90
2023-01-01T03:34:36.686Z,13.90
2023-01-01T03:37:07.861Z,13.90
2023-01-01T03:39:39.383Z,13.90
2023-01-01T03:42:16.369Z,13.90
2023-01-01T03:44:48.374Z,13.90
2023-01-01T03:47:18.173Z,13.90
2023-01-01T03:49:47.422Z,13.90
2023-01-01T03:52:30.683Z,13.90
2023-01-01T03:55:07.467Z,13.80
2023-01-01T03:57:44.443Z,13.80
2023-01-01T04:00:16.593Z,13.80
2023-01-01T04:02:51.804Z,13.80
2023-01-01T04:05:20.764Z,13.80
2023-01-01T04:10:20.181Z,13.80
2023-01-01T04:12:50.527Z,13.80
2023-01-01T04:15:19.941Z,13.70
2023-01-01T04:17:49.771Z,13.70
2023-01-01T04:20:18.593Z,13.70
2023-01-01T04:22:46.978Z,13.70
2023-01-01T04:25:15.529Z,13.80
2023-01-01T04:27:43.450Z,13.80
2023-01-01T04:30:14.035Z,13.80
2023-01-01T04:32:42.609Z,13.80
2023-01-01T04:35:13.723Z,13.80
2023-01-01T04:37:43.398Z,13.80
2023-01-01T04:40:13.161Z,13.70
2023-01-01T04:42:41.263Z,13.70
2023-01-01T04:45:12.357Z,13.70
2023-01-01T04:47:41.423Z,13.70
2023-01-01T04:50:11.533Z,13.70
2023-01-01T04:52:39.689Z,13.70
2023-01-01T04:55:08.472Z,13.70
2023-01-01T04:57:36.398Z,13.70
2023-01-01T05:00:04.949Z,13.80
2023-01-01T05:02:32.977Z,13.80
2023-01-01T05:05:00.906Z,13.80
2023-01-01T05:07:30.210Z,13.70
2023-01-01T05:09:58.360Z,13.80
2023-01-01T05:12:26.281Z,13.70
2023-01-01T05:14:54.203Z,13.70
2023-01-01T05:17:22.150Z,13.70
2023-01-01T05:19:50.110Z,13.70
2023-01-01T05:22:18.023Z,13.70
2023-01-01T05:24:47.307Z,13.70
2023-01-01T05:27:15.237Z,13.70
2023-01-01T05:29:43.152Z,13.70
2023-01-01T05:37:04.725Z,13.70
2023-01-01T05:39:32.644Z,13.60
2023-01-01T05:42:01.916Z,13.60
2023-01-01T05:44:29.965Z,13.60
2023-01-01T05:46:58.068Z,13.60
2023-01-01T05:49:25.974Z,13.60
2023-01-01T05:51:53.886Z,13.60
2023-01-01T05:54:21.782Z,13.60
2023-01-01T05:56:49.695Z,13.60
2023-01-01T05:59:18.989Z,13.70
2023-01-01T06:01:46.933Z,13.70
2023-01-01T06:04:15.339Z,13.60
2023-01-01T06:06:43.683Z,13.70
2023-01-01T06:09:12.300Z,13.70
2023-01-01T06:11:40.219Z,13.60
2023-01-01T06:14:08.142Z,13.60
2023-01-01T06:16:37.540Z,13.60
2023-01-01T06:19:05.533Z,13.60
2023-01-01T06:21:33.519Z,13.60
2023-01-01T06:24:01.937Z,13.60
2023-01-01T06:26:31.455Z,13.60
2023-01-01T06:29:00.522Z,13.60
2023-01-01T06:31:30.029Z,13.60
2023-01-01T06:34:01.244Z,13.60
2023-01-01T06:36:29.317Z,13.50
2023-01-01T06:38:58.654Z,13.50
2023-01-01T06:41:28.186Z,13.50
2023-01-01T06:43:57.054Z,13.50
2023-01-01T06:46:27.542Z,13.50
2023-01-01T06:48:57.879Z,13.50
2023-01-01T06:51:28.475Z,13.50
2023-01-01T06:53:59.071Z,13.50
2023-01-01T06:56:27.326Z,13.50
2023-01-01T06:58:55.312Z,13.50
2023-01-01T07:01:24.741Z,13.50
2023-01-01T07:03:54.441Z,13.50
2023-01-01T07:06:23.285Z,13.50
2023-01-01T07:08:52.915Z,13.50
2023-01-01T07:11:20.921Z,13.60
2023-01-01T07:13:48.840Z,13.60
2023-01-01T07:16:16.925Z,13.60
2023-01-01T07:18:44.936Z,13.70
2023-01-01T07:21:29.501Z,13.80
2023-01-01T07:24:00.002Z,13.90
2023-01-01T07:26:29.019Z,13.90
2023-01-01T07:29:02.793Z,14.00
2023-01-01T07:31:34.115Z,14.00
2023-01-01T07:34:02.144Z,14.00
2023-01-01T07:36:30.055Z,14.00
2023-01-01T07:38:59.415Z,14.00
2023-01-01T07:41:27.333Z,14.10
2023-01-01T07:43:55.242Z,14.10
2023-01-01T07:46:23.353Z,14.20
2023-01-01T07:48:51.377Z,14.20
2023-01-01T07:51:19.313Z,14.20
2023-01-01T07:53:47.485Z,14.30
2023-01-01T07:56:17.025Z,14.30
2023-01-01T07:58:45.295Z,14.20
2023-01-01T08:01:14.625Z,14.30
2023-01-01T08:03:43.041Z,14.30
2023-01-01T08:06:11.975Z,14.40
2023-01-01T08:08:40.062Z,14.40
2023-01-01T08:11:08.017Z,14.50
2023-01-01T08:13:37.314Z,14.50
2023-01-01T08:16:06.236Z,14.50
2023-01-01T08:18:34.218Z,14.50
2023-01-01T08:21:02.181Z,14.60
2023-01-01T08:23:30.075Z,14.60
2023-01-01T08:26:01.290Z,14.60
2023-01-01T08:28:30.408Z,14.60
2023-01-01T08:31:00.414Z,14.60
2023-01-01T08:33:28.421Z,14.60
2023-01-01T08:35:56.493Z,14.60
2023-01-01T08:38:24.418Z,14.60
2023-01-01T08:40:52.551Z,14.60
2023-01-01T08:43:20.525Z,14.60
2023-01-01T08:45:48.449Z,14.70
2023-01-01T08:48:17.717Z,14.70
2023-01-01T08:50:45.615Z,14.70
2023-01-01T08:53:13.778Z,14.80
2023-01-01T08:55:41.732Z,14.80
2023-01-01T08:58:09.668Z,14.80
2023-01-01T09:00:37.614Z,14.80
2023-01-01T09:03:05.661Z,14.90
2023-01-01T09:05:35.016Z,14.90
2023-01-01T09:08:03.059Z,14.90
2023-01-01T09:10:31.666Z,14.90
2023-01-01T09:12:59.603Z,14.90
2023-01-01T09:15:27.494Z,15.00
2023-01-01T09:17:55.418Z,15.00
2023-01-01T09:20:23.720Z,15.00
2023-01-01T09:22:53.140Z,15.10
2023-01-01T09:25:21.352Z,15.10
2023-01-01T09:27:49.394Z,15.10
2023-01-01T09:30:17.573Z,15.10
2023-01-01T09:32:45.739Z,15.10
2023-01-01T09:35:13.650Z,15.10
2023-01-01T09:37:41.574Z,15.10
2023-01-01T09:40:26.923Z,15.20
2023-01-01T09:43:05.258Z,15.20
2023-01-01T09:45:38.644Z,15.20
2023-01-01T09:48:12.257Z,15.20
2023-01-01T09:50:42.204Z,15.20
2023-01-01T09:53:16.376Z,15.30
2023-01-01T09:55:50.286Z,15.30
2023-01-01T09:58:22.451Z,15.40
2023-01-01T10:00:54.727Z,15.40
2023-01-01T10:03:40.735Z,15.40
2023-01-01T10:06:19.743Z,15.40
2023-01-01T10:08:58.891Z,15.40
2023-01-01T10:11:34.150Z,15.40
2023-01-01T10:14:16.246Z,15.50
2023-01-01T10:16:48.084Z,15.50
2023-01-01T10:19:25.549Z,15.50
2023-01-01T10:21:58.835Z,15.50
2023-01-01T10:24:39.559Z,15.50
2023-01-01T10:27:14.336Z,15.50
2023-01-01T10:29:46.066Z,15.50
2023-01-01T10:32:21.017Z,15.50
2023-01-01T10:34:50.286Z,15.50
2023-01-01T10:37:18.296Z,15.50
2023-01-01T10:39:48.170Z,15.50
2023-01-01T10:42:18.151Z,15.50
2023-01-01T10:44:46.750Z,15.50
2023-01-01T10:47:26.565Z,15.50
2023-01-01T10:49:59.139Z,15.60
2023-01-01T10:52:31.781Z,15.60
2023-01-01T10:55:00.946Z,15.60
2023-01-01T10:57:37.860Z,15.50
2023-01-01T11:00:24.213Z,15.60
2023-01-01T11:03:15.174Z,15.60
2023-01-01T11:06:11.599Z,15.60
2023-01-01T11:08:47.968Z,15.60
2023-01-01T11:11:22.308Z,15.60
2023-01-01T11:13:56.339Z,15.60
2023-01-01T11:16:25.368Z,15.60
2023-01-01T11:18:53.733Z,15.60
2023-01-01T11:21:24.129Z,15.60
2023-01-01T11:24:10.195Z,15.60
2023-01-01T11:26:38.191Z,15.70
2023-01-01T11:29:26.673Z,15.70
2023-01-01T11:31:55.031Z,15.70
2023-01-01T11:34:33.502Z,15.60
2023-01-01T11:37:24.710Z,15.70
2023-01-01T11:39:55.360Z,15.70
2023-01-01T11:42:26.334Z,15.70
2023-01-01T11:44:58.371Z,15.70
2023-01-01T11:47:31.733Z,15.70
2023-01-01T11:50:03.136Z,15.70
2023-01-01T11:52:38.201Z,15.70
2023-01-01T11:55:21.548Z,15.70
2023-01-01T11:57:59.086Z,15.70
2023-01-01T12:00:31.730Z,15.70
2023-01-01T12:03:02.491Z,15.70
2023-01-01T12:05:41.248Z,15.70
2023-01-01T12:08:14.029Z,15.60
2023-01-01T12:10:50.140Z,15.60
2023-01-01T12:13:22.089Z,15.80
2023-01-01T12:15:56.999Z,15.60
2023-01-01T12:18:31.558Z,15.60
2023-01-01T12:21:04.636Z,15.60
2023-01-01T12:23:33.385Z,15.60
2023-01-01T12:26:12.604Z,15.60
2023-01-01T12:28:53.439Z,15.70
2023-01-01T12:31:32.532Z,15.60
2023-01-01T12:34:11.421Z,15.60
2023-01-01T12:36:46.526Z,15.50
2023-01-01T12:39:59.120Z,15.60
2023-01-01T12:42:38.138Z,15.50
2023-01-01T12:45:30.487Z,15.50
2023-01-01T12:48:09.954Z,15.50
2023-01-01T12:50:54.212Z,15.50
2023-01-01T12:53:32.731Z,15.40
2023-01-01T12:56:07.893Z,15.50
2023-01-01T12:58:39.258Z,15.50
2023-01-01T13:01:12.722Z,15.50
2023-01-01T13:03:50.181Z,15.50
2023-01-01T13:06:26.581Z,15.50
2023-01-01T13:09:00.873Z,15.50
2023-01-01T13:11:29.929Z,15.50
2023-01-01T13:13:57.875Z,15.50
2023-01-01T13:16:38.401Z,15.50
2023-01-01T13:19:08.512Z,15.50
2023-01-01T13:21:38.450Z,15.50
2023-01-01T13:24:19.522Z,15.50
2023-01-01T13:26:49.138Z,15.50
2023-01-01T13:29:43.451Z,15.50
2023-01-01T13:32:13.343Z,15.50
2023-01-01T13:35:05.649Z,15.50
2023-01-01T13:37:44.974Z,15.40
2023-01-01T13:40:50.949Z,15.40
2023-01-01T13:43:37.169Z,15.40
2023-01-01T13:46:14.762Z,15.40
2023-01-01T13:49:11.787Z,15.30
2023-01-01T13:52:06.593Z,15.30
2023-01-01T13:55:09.011Z,15.30
2023-01-01T13:58:10.597Z,15.30
2023-01-01T14:00:49.636Z,15.20
2023-01-01T14:03:19.200Z,15.20
2023-01-01T14:05:51.169Z,15.20
2023-01-01T14:08:31.664Z,15.20
2023-01-01T14:11:02.186Z,15.20
2023-01-01T14:13:32.571Z,15.20
2023-01-01T14:16:04.441Z,15.20
2023-01-01T14:18:37.271Z,15.10
2023-01-01T14:21:10.720Z,15.10
2023-01-01T14:23:42.494Z,15.10
2023-01-01T14:26:14.011Z,15.10
2023-01-01T14:28:42.761Z,15.10
2023-01-01T14:31:13.019Z,15.10
2023-01-01T14:33:41.057Z,15.10
2023-01-01T14:36:17.969Z,15.10
2023-01-01T14:38:49.195Z,15.10
2023-01-01T14:41:21.028Z,15.00
2023-01-01T14:43:51.691Z,15.10
2023-01-01T14:46:22.341Z,15.00
2023-01-01T14:48:53.909Z,15.10
2023-01-01T14:51:24.491Z,15.00
2023-01-01T14:53:56.198Z,15.00
2023-01-01T14:56:26.625Z,14.90
2023-01-01T14:58:56.616Z,14.90
2023-01-01T15:01:26.931Z,14.80
2023-01-01T15:04:00.328Z,14.80
2023-01-01T15:06:29.274Z,14.80
2023-01-01T15:08:58.841Z,14.80
2023-01-01T15:11:29.341Z,14.70
2023-01-01T15:14:00.203Z,14.70
2023-01-01T15:16:36.100Z,14.60
2023-01-01T15:19:19.522Z,14.60
2023-01-01T15:21:47.697Z,14.60
2023-01-01T15:24:22.217Z,14.60
2023-01-01T15:26:53.252Z,14.50
2023-01-01T15:29:28.550Z,14.50
2023-01-01T15:32:00.008Z,14.50
2023-01-01T15:34:31.831Z,14.40
2023-01-01T15:37:09.531Z,14.40
2023-01-01T15:39:48.069Z,14.40
2023-01-01T15:42:33.437Z,14.40
2023-01-01T15:45:20.913Z,14.30
2023-01-01T15:47:49.056Z,14.30
2023-01-01T15:50:25.116Z,14.30
2023-01-01T15:52:56.774Z,14.20
2023-01-01T15:55:29.037Z,14.20
2023-01-01T15:57:57.577Z,14.10
2023-01-01T16:00:29.325Z,14.10
2023-01-01T16:03:01.403Z,14.10
2023-01-01T16:05:29.708Z,14.10
2023-01-01T16:08:02.796Z,14.10
2023-01-01T16:10:32.786Z,14.00
2023-01-01T16:13:00.803Z,14.00
2023-01-01T16:15:28.881Z,14.00
2023-01-01T16:17:56.990Z,13.90
2023-01-01T16:20:28.279Z,14.00
2023-01-01T16:22:56.359Z,13.90
2023-01-01T16:25:24.629Z,13.80
2023-01-01T16:27:53.889Z,13.80
2023-01-01T16:30:26.768Z,13.80
2023-01-01T16:32:54.896Z,13.80
2023-01-01T16:35:22.876Z,13.70
2023-01-01T16:37:50.830Z,13.70
2023-01-01T16:40:18.993Z,13.70
2023-01-01T16:42:46.941Z,13.70
2023-01-01T16:45:19.358Z,13.70
2023-01-01T16:47:47.561Z,13.70
2023-01-01T16:50:15.764Z,13.60
2023-01-01T16:52:45.136Z,13.60
2023-01-01T16:55:13.597Z,13.60
2023-01-01T16:57:41.613Z,13.60
2023-01-01T17:00:10.870Z,13.60
2023-01-01T17:02:40.331Z,13.50
2023-01-01T17:05:09.254Z,13.60
2023-01-01T17:07:37.218Z,13.50
2023-01-01T17:10:05.887Z,13.50
2023-01-01T17:12:33.947Z,13.50
2023-01-01T17:15:01.902Z,13.50
2023-01-01T17:17:29.812Z,13.50
2023-01-01T17:19:59.069Z,13.50
2023-01-01T17:22:33.932Z,13.40
2023-01-01T17:25:02.370Z,13.40
2023-01-01T17:27:30.300Z,13.40
2023-01-01T17:29:58.244Z,13.40
2023-01-01T17:32:26.143Z,13.30
2023-01-01T17:34:54.063Z,13.40
2023-01-01T17:37:23.381Z,13.30
2023-01-01T17:39:51.607Z,13.30
2023-01-01T17:42:19.531Z,13.30
2023-01-01T17:44:47.477Z,13.10
2023-01-01T17:47:15.412Z,13.20
2023-01-01T17:49:43.837Z,13.10
2023-01-01T17:52:12.056Z,13.10
2023-01-01T17:54:41.407Z,13.10
2023-01-01T17:57:09.330Z,13.00
2023-01-01T17:59:37.255Z,13.00
2023-01-01T18:02:06.060Z,13.00
2023-01-01T18:04:34.127Z,13.00
2023-01-01T18:07:06.375Z,12.90
2023-01-01T18:09:36.781Z,12.90
2023-01-01T18:12:06.722Z,12.80
2023-01-01T18:14:34.633Z,12.80
2023-01-01T18:17:02.569Z,12.80
2023-01-01T18:19:32.336Z,12.70
2023-01-01T18:22:00.298Z,12.70
2023-01-01T18:24:28.364Z,12.70
2023-01-01T18:26:56.266Z,12.70
2023-01-01T18:29:25.750Z,12.60
2023-01-01T18:31:53.700Z,12.60
2023-01-01T18:34:21.805Z,12.60
2023-01-01T18:36:49.703Z,12.50
2023-01-01T18:39:22.217Z,12.50
2023-01-01T18:42:35.118Z,12.50
2023-01-01T18:45:15.310Z,12.40
2023-01-01T18:47:45.778Z,12.40
2023-01-01T18:50:23.610Z,12.40
2023-01-01T18:52:54.673Z,12.30
2023-01-01T18:55:26.967Z,12.40
2023-01-01T18:58:00.728Z,12.40
2023-01-01T19:00:35.960Z,12.40
2023-01-01T19:03:05.154Z,12.40
2023-01-01T19:05:34.548Z,12.40
2023-01-01T19:08:12.270Z,12.40
2023-01-01T19:10:43.661Z,12.40
2023-01-01T19:13:23.242Z,12.40
2023-01-01T19:15:55.396Z,12.40
2023-01-01T19:18:24.992Z,12.30
2023-01-01T19:21:11.808Z,12.40
2023-01-01T19:23:49.735Z,12.70
2023-01-01T19:26:25.027Z,12.40
2023-01-01T19:28:55.131Z,12.40
2023-01-01T19:31:25.341Z,12.50
2023-01-01T19:33:53.577Z,12.50
2023-01-01T19:36:21.863Z,12.50
2023-01-01T19:38:51.904Z,12.50
2023-01-01T19:41:19.963Z,12.50
2023-01-01T19:43:48.121Z,12.50
2023-01-01T19:46:16.283Z,12.50
2023-01-01T19:48:45.618Z,12.50
2023-01-01T19:51:13.534Z,12.50
2023-01-01T19:53:41.552Z,12.50
2023-01-01T19:56:10.401Z,12.50
2023-01-01T19:58:38.341Z,12.40
2023-01-01T20:01:06.679Z,12.50
2023-01-01T20:03:53.590Z,12.40
2023-01-01T20:06:24.019Z,12.40
2023-01-01T20:08:51.993Z,12.40
2023-01-01T20:11:21.121Z,12.40
2023-01-01T20:13:49.099Z,12.40
2023-01-01T20:16:17.056Z,12.40
2023-01-01T20:18:45.706Z,12.40
2023-01-01T20:21:31.174Z,12.40
2023-01-01T20:24:00.521Z,12.40
2023-01-01T20:26:28.443Z,12.40
2023-01-01T20:29:14.002Z,12.50
2023-01-01T20:31:42.966Z,12.50
2023-01-01T20:34:11.277Z,12.50
2023-01-01T20:36:57.174Z,12.50
2023-01-01T20:39:26.828Z,12.40
2023-01-01T20:41:54.866Z,12.40
2023-01-01T20:44:22.903Z,12.40
2023-01-01T20:46:50.879Z,12.40
2023-01-01T20:49:19.546Z,12.50
2023-01-01T20:51:47.727Z,12.40
2023-01-01T20:54:15.883Z,12.40
2023-01-01T20:56:45.188Z,12.40
2023-01-01T20:59:34.119Z,12.40
2023-01-01T21:02:01.493Z,12.40
2023-01-01T21:04:29.574Z,12.40
2023-01-01T21:06:57.571Z,12.50
2023-01-01T21:09:25.531Z,12.50
2023-01-01T21:11:54.812Z,12.50
2023-01-01T21:14:25.719Z,12.50
2023-01-01T21:16:54.259Z,12.50
2023-01-01T21:19:26.725Z,12.50
2023-01-01T21:21:57.060Z,12.50
2023-01-01T21:24:28.228Z,12.40
2023-01-01T21:27:11.534Z,12.40
2023-01-01T21:29:44.738Z,12.40
2023-01-01T21:32:20.191Z,12.40
2023-01-01T21:34:50.424Z,12.30
2023-01-01T21:37:36.724Z,12.20
2023-01-01T21:40:41.746Z,12.30
2023-01-01T21:43:33.409Z,12.30
2023-01-01T21:46:15.416Z,12.30
2023-01-01T21:48:48.447Z,12.30
2023-01-01T21:51:20.144Z,12.30
2023-01-01T21:53:48.244Z,12.30
2023-01-01T21:56:28.146Z,12.30
2023-01-01T21:59:19.020Z,12.20
2023-01-01T22:01:49.663Z,12.30
2023-01-01T22:04:21.983Z,12.30
2023-01-01T22:06:52.483Z,12.30
2023-01-01T22:09:23.857Z,12.30
2023-01-01T22:11:54.738Z,12.30
2023-01-01T22:14:28.314Z,12.30
2023-01-01T22:16:57.026Z,12.40
2023-01-01T22:19:27.718Z,12.30
2023-01-01T22:21:55.790Z,12.30
2023-01-01T22:24:33.458Z,12.20
2023-01-01T22:27:19.314Z,12.20
2023-01-01T22:29:49.058Z,12.20
2023-01-01T22:32:20.851Z,12.20
2023-01-01T22:34:49.761Z,12.10
2023-01-01T22:37:20.642Z,12.10
2023-01-01T22:39:49.330Z,12.10
2023-01-01T22:42:19.854Z,12.10
2023-01-01T22:44:57.293Z,12.10
2023-01-01T22:47:34.266Z,12.10
2023-01-01T22:50:03.729Z,12.00
2023-01-01T22:52:31.707Z,12.10
2023-01-01T22:54:59.622Z,12.00
2023-01-01T22:57:27.540Z,12.00
2023-01-01T22:59:56.843Z,12.00
2023-01-01T23:02:24.838Z,12.00
2023-01-01T23:04:52.788Z,11.90
2023-01-01T23:07:20.796Z,12.00
2023-01-01T23:09:48.722Z,12.00
2023-01-01T23:12:16.821Z,12.00
2023-01-01T23:15:02.186Z,12.00
2023-01-01T23:17:31.861Z,12.00
2023-01-01T23:19:59.793Z,12.00
2023-01-01T23:22:29.792Z,12.00
2023-01-01T23:24:58.617Z,12.00
2023-01-01T23:27:26.645Z,12.00
2023-01-01T23:29:55.552Z,12.00
2023-01-01T23:32:23.608Z,12.00
2023-01-01T23:34:52.966Z,12.00
2023-01-01T23:37:21.325Z,12.00
2023-01-01T23:39:49.292Z,12.00
2023-01-01T23:42:17.245Z,12.00
2023-01-01T23:44:47.669Z,12.00
2023-01-01T23:47:15.793Z,11.90
2023-01-01T23:49:44.438Z,12.00
2023-01-01T23:52:13.820Z,11.90
2023-01-01T23:54:41.763Z,11.90
2023-01-01T23:57:09.701Z,12.00
2023-01-01T23:59:37.630Z,11.90
